Terminal Aerodrome Forecast
Issued by NWS

Home | Current Version | Previous Version | Text Only | Print | Product List | Glossary On
Versions: 1 2 3 4 5 6 7 8 9 10 11 12 13 14 15 16 17 18 19
000
FTUS43 KDLH 251559 AAA
TAFBRD
TAF AMD
KBRD 251559Z 2516/2612 34016G23KT P6SM SKC
     FM252100 33010KT P6SM SKC
     FM260100 36002KT P6SM SKC=

USA.gov is the U.S. government's official web portal to all federal, state and local government web resources and services.